createdAt,value
2022-09-23T00:00:22.941Z,2.07
2022-09-23T00:01:24.788Z,2.30
2022-09-23T00:02:26.408Z,2.27
2022-09-23T00:03:31.549Z,2.13
2022-09-23T00:04:33.127Z,2.10
2022-09-23T00:05:34.855Z,2.20
2022-09-23T00:06:36.544Z,1.90
2022-09-23T00:07:38.593Z,2.00
2022-09-23T00:08:41.059Z,2.50
2022-09-23T00:09:42.896Z,1.97
2022-09-23T00:10:44.588Z,2.30
2022-09-23T00:11:46.261Z,2.20
2022-09-23T00:12:48.665Z,2.53
2022-09-23T00:13:53.298Z,2.30
2022-09-23T00:14:54.943Z,2.13
2022-09-23T00:15:56.521Z,2.20
2022-09-23T00:16:58.173Z,2.40
2022-09-23T00:18:00.114Z,2.10
2022-09-23T00:19:02.599Z,2.67
2022-09-23T00:20:04.899Z,2.23
2022-09-23T00:21:09.185Z,2.40
2022-09-23T00:22:13.852Z,3.03
2022-09-23T00:23:15.447Z,2.38
2022-09-23T00:24:17.227Z,2.05
2022-09-23T00:25:19.478Z,2.20
2022-09-23T00:26:22.964Z,2.67
2022-09-23T00:27:24.695Z,2.27
2022-09-23T00:28:26.595Z,2.50
2022-09-23T00:29:28.096Z,2.37
2022-09-23T00:30:32.091Z,2.40
2022-09-23T00:31:33.865Z,2.33
2022-09-23T00:32:36.799Z,2.50
2022-09-23T00:33:40.501Z,2.13
2022-09-23T00:34:44.280Z,2.00
2022-09-23T00:35:47.332Z,2.43
2022-09-23T00:36:48.918Z,2.50
2022-09-23T00:37:50.536Z,2.13
2022-09-23T00:38:53.470Z,2.60
2022-09-23T00:39:55.605Z,2.60
2022-09-23T00:40:58.386Z,2.90
2022-09-23T00:42:00.516Z,2.03
2022-09-23T00:43:02.085Z,2.05
2022-09-23T00:44:59.217Z,2.30
2022-09-23T00:46:00.779Z,2.00
2022-09-23T00:47:02.528Z,2.23
2022-09-23T00:48:05.249Z,2.23
2022-09-23T00:49:12.561Z,2.23
2022-09-23T00:50:17.620Z,2.60
2022-09-23T00:51:25.040Z,2.38
2022-09-23T00:52:26.598Z,1.85
2022-09-23T00:53:34.645Z,2.23
2022-09-23T00:54:36.460Z,2.10
2022-09-23T00:56:01.123Z,2.27
2022-09-23T00:57:05.488Z,2.22
2022-09-23T00:58:11.157Z,2.20
2022-09-23T00:59:13.892Z,2.13
2022-09-23T01:00:15.824Z,2.20
2022-09-23T01:01:19.042Z,2.13
2022-09-23T01:02:23.882Z,2.28
2022-09-23T01:03:25.850Z,2.30
2022-09-23T01:04:29.870Z,2.27
2022-09-23T01:05:34.407Z,2.23
2022-09-23T01:06:36.577Z,2.10
2022-09-23T01:07:39.161Z,2.40
2022-09-23T01:08:44.090Z,2.10
2022-09-23T01:09:50.433Z,2.40
2022-09-23T01:11:24.284Z,2.13
2022-09-23T01:12:56.133Z,2.40
2022-09-23T01:14:09.894Z,2.05
2022-09-23T01:15:16.823Z,2.40
2022-09-23T01:16:48.942Z,2.40
2022-09-23T01:18:05.625Z,2.33
2022-09-23T01:19:38.111Z,2.50
2022-09-23T01:21:04.185Z,2.50
2022-09-23T01:22:22.582Z,2.40
2022-09-23T01:23:46.587Z,2.35
2022-09-23T01:25:06.421Z,2.13
2022-09-23T01:26:37.578Z,2.38
2022-09-23T01:27:57.896Z,2.20
2022-09-23T01:29:16.110Z,2.20
2022-09-23T01:30:55.195Z,2.67
2022-09-23T01:32:07.054Z,2.03
2022-09-23T01:33:20.151Z,1.97
2022-09-23T01:34:44.572Z,2.50
2022-09-23T01:35:58.070Z,2.38
2022-09-23T01:37:21.414Z,2.80
2022-09-23T01:38:45.133Z,2.70
2022-09-23T01:40:10.214Z,2.25
2022-09-23T01:41:41.609Z,2.00
2022-09-23T01:42:53.588Z,2.30
2022-09-23T01:44:08.849Z,2.80
2022-09-23T01:45:17.783Z,2.60
2022-09-23T01:46:30.467Z,2.57
2022-09-23T01:47:44.747Z,2.23
2022-09-23T01:49:02.423Z,2.83
2022-09-23T01:50:28.975Z,2.20
2022-09-23T01:51:39.589Z,1.85
2022-09-23T01:52:47.312Z,2.33
2022-09-23T01:54:03.406Z,2.17
2022-09-23T01:55:17.282Z,2.00
2022-09-23T01:56:24.915Z,2.10
2022-09-23T01:57:41.455Z,2.00
2022-09-23T01:59:09.401Z,2.30
2022-09-23T02:00:15.719Z,2.60
2022-09-23T02:01:29.310Z,2.10
2022-09-23T02:02:44.313Z,2.90
2022-09-23T02:03:50.293Z,1.95
2022-09-23T02:04:56.909Z,2.45
2022-09-23T02:06:12.572Z,2.15
2022-09-23T02:07:52.727Z,2.38
2022-09-23T02:09:06.007Z,2.80
2022-09-23T02:10:15.497Z,2.00
2022-09-23T02:11:18.115Z,2.40
2022-09-23T02:12:24.453Z,2.20
2022-09-23T02:13:32.854Z,2.00
2022-09-23T02:14:53.256Z,2.90
2022-09-23T02:16:03.698Z,2.40
2022-09-23T02:17:13.177Z,2.00
2022-09-23T02:18:20.208Z,2.40
2022-09-23T02:19:28.211Z,2.17
2022-09-23T02:20:34.611Z,2.60
2022-09-23T02:21:41.131Z,2.30
2022-09-23T02:22:56.063Z,2.25
2022-09-23T02:24:09.100Z,2.30
2022-09-23T02:25:12.605Z,2.00
2022-09-23T02:26:30.596Z,2.08
2022-09-23T02:27:57.189Z,2.87
2022-09-23T02:29:29.416Z,2.45
2022-09-23T02:30:39.780Z,3.00
2022-09-23T02:32:20.533Z,2.22
2022-09-23T02:33:39.431Z,2.45
2022-09-23T02:34:59.437Z,2.05
2022-09-23T02:36:10.222Z,2.25
2022-09-23T02:37:21.456Z,2.65
2022-09-23T02:38:39.294Z,3.00
2022-09-23T02:40:00.870Z,2.35
2022-09-23T02:41:18.030Z,2.90
2022-09-23T02:42:53.914Z,2.70
2022-09-23T02:44:02.620Z,2.30
2022-09-23T02:45:05.876Z,2.40
2022-09-23T02:46:07.921Z,2.25
2022-09-23T02:47:10.584Z,2.65
2022-09-23T02:48:22.851Z,2.45
2022-09-23T02:49:29.825Z,2.35
2022-09-23T02:50:33.174Z,2.25
2022-09-23T02:51:40.074Z,2.28
2022-09-23T02:52:41.818Z,2.30
2022-09-23T02:53:43.457Z,2.08
2022-09-23T02:59:09.188Z,2.20
2022-09-23T03:00:12.488Z,2.17
2022-09-23T03:01:32.587Z,2.38
2022-09-23T03:02:59.458Z,2.40
2022-09-23T03:04:05.162Z,2.40
2022-09-23T03:05:23.874Z,2.65
2022-09-23T03:06:32.656Z,2.72
2022-09-23T03:08:05.424Z,2.22
2022-09-23T03:09:13.422Z,2.50
2022-09-23T03:10:42.058Z,2.40
2022-09-23T03:11:50.496Z,2.33
2022-09-23T03:13:04.648Z,2.53
2022-09-23T03:14:22.001Z,2.60
2022-09-23T03:15:35.613Z,2.10
2022-09-23T03:16:46.292Z,3.25
2022-09-23T03:18:31.639Z,3.00
2022-09-23T03:20:10.116Z,2.58
2022-09-23T03:21:28.729Z,2.45
2022-09-23T03:22:47.147Z,2.63
2022-09-23T03:23:50.183Z,2.45
2022-09-23T03:24:54.269Z,2.35
2022-09-23T03:25:58.332Z,2.85
2022-09-23T03:27:05.208Z,2.47
2022-09-23T03:28:08.650Z,2.47
2022-09-23T03:29:12.529Z,2.08
2022-09-23T03:30:21.891Z,2.85
2022-09-23T03:31:26.292Z,2.10
2022-09-23T03:32:29.673Z,2.90
2022-09-23T03:33:32.817Z,2.30
2022-09-23T03:34:36.830Z,2.22
2022-09-23T03:36:20.425Z,2.53
2022-09-23T03:37:34.468Z,2.55
2022-09-23T03:38:40.221Z,2.70
2022-09-23T03:39:48.215Z,2.50
2022-09-23T03:40:51.058Z,2.58
2022-09-23T03:41:56.425Z,2.03
2022-09-23T03:43:04.556Z,2.72
2022-09-23T03:44:08.239Z,2.60
2022-09-23T03:45:17.122Z,2.50
2022-09-23T03:46:18.800Z,2.90
2022-09-23T03:47:21.982Z,2.50
2022-09-23T03:48:25.349Z,2.65
2022-09-23T03:49:34.228Z,2.45
2022-09-23T03:50:35.929Z,2.90
2022-09-23T03:51:39.518Z,2.60
2022-09-23T03:52:44.854Z,2.10
2022-09-23T03:53:46.416Z,2.28
2022-09-23T03:54:52.161Z,2.60
2022-09-23T03:55:53.758Z,2.50
2022-09-23T03:57:01.846Z,2.10
2022-09-23T03:58:04.785Z,2.13
2022-09-23T03:59:06.495Z,2.70
2022-09-23T04:00:11.855Z,2.65
2022-09-23T04:01:14.932Z,3.22
2022-09-23T04:02:18.134Z,2.50
2022-09-23T04:03:19.925Z,2.97
2022-09-23T04:04:21.438Z,2.30
2022-09-23T04:05:23.031Z,2.60
2022-09-23T04:06:24.724Z,2.67
2022-09-23T04:07:26.490Z,2.75
2022-09-23T04:08:28.067Z,2.80
2022-09-23T04:09:30.147Z,2.63
2022-09-23T04:10:31.784Z,2.50
2022-09-23T04:11:33.675Z,2.75
2022-09-23T04:12:35.420Z,3.03
2022-09-23T04:13:37.010Z,3.03
2022-09-23T04:14:39.265Z,2.63
2022-09-23T04:15:40.839Z,2.58
2022-09-23T04:16:42.688Z,2.67
2022-09-23T04:17:44.261Z,2.78
2022-09-23T04:18:45.902Z,2.72
2022-09-23T04:19:47.493Z,2.92
2022-09-23T04:20:49.467Z,3.25
2022-09-23T04:21:51.013Z,2.60
2022-09-23T04:22:52.627Z,2.53
2022-09-23T04:23:54.154Z,2.50
2022-09-23T04:24:56.154Z,2.90
2022-09-23T04:25:57.675Z,2.60
2022-09-23T04:26:59.815Z,2.88
2022-09-23T04:28:01.624Z,2.60
2022-09-23T04:29:04.911Z,2.70
2022-09-23T04:30:07.095Z,2.42
2022-09-23T04:31:09.978Z,2.72
2022-09-23T04:32:11.913Z,2.35
2022-09-23T04:33:13.744Z,2.72
2022-09-23T04:34:19.381Z,2.40
2022-09-23T04:35:20.927Z,2.33
2022-09-23T04:36:22.763Z,3.00
2022-09-23T04:37:24.297Z,2.75
2022-09-23T04:38:26.194Z,3.38
2022-09-23T04:39:27.772Z,2.40
2022-09-23T04:40:29.518Z,2.80
2022-09-23T04:41:31.484Z,2.90
2022-09-23T04:42:34.649Z,3.00
2022-09-23T04:43:36.250Z,3.10
2022-09-23T04:44:38.925Z,2.20
2022-09-23T04:45:40.405Z,2.58
2022-09-23T04:46:43.979Z,2.90
2022-09-23T04:47:45.597Z,2.55
2022-09-23T04:48:48.432Z,3.17
2022-09-23T04:49:49.956Z,3.05
2022-09-23T04:50:51.523Z,2.90
2022-09-23T04:51:53.130Z,2.75
2022-09-23T04:52:55.264Z,2.90
2022-09-23T04:53:57.507Z,3.30
2022-09-23T04:54:59.327Z,3.03
2022-09-23T04:56:02.843Z,3.10
2022-09-23T04:57:04.443Z,2.97
2022-09-23T04:58:05.913Z,3.70
2022-09-23T04:59:07.949Z,3.45
2022-09-23T05:00:12.284Z,3.00
2022-09-23T05:01:28.109Z,3.28
2022-09-23T05:02:30.155Z,2.85
2022-09-23T05:03:35.328Z,2.53
2022-09-23T05:04:36.886Z,3.70
2022-09-23T05:05:38.440Z,3.33
2022-09-23T05:06:40.536Z,2.92
2022-09-23T05:07:42.169Z,3.10
2022-09-23T05:08:52.210Z,3.88
2022-09-23T05:09:53.807Z,3.47
2022-09-23T05:10:58.949Z,3.88
2022-09-23T05:12:00.610Z,2.95
2022-09-23T05:13:03.484Z,3.20
2022-09-23T05:14:05.215Z,3.22
2022-09-23T05:15:07.361Z,2.78
2022-09-23T05:16:12.622Z,2.72
2022-09-23T05:17:15.719Z,3.22
2022-09-23T05:18:20.723Z,3.15
2022-09-23T05:19:23.041Z,3.15
2022-09-23T05:20:25.043Z,3.08
2022-09-23T05:21:30.430Z,5.50
2022-09-23T05:22:32.131Z,4.60
2022-09-23T05:23:34.229Z,5.18
2022-09-23T05:24:36.506Z,4.75
2022-09-23T05:25:38.769Z,3.78
2022-09-23T05:26:40.769Z,3.60
2022-09-23T05:27:52.155Z,3.28
2022-09-23T05:28:54.306Z,3.80
2022-09-23T05:29:55.836Z,3.35
2022-09-23T05:31:06.123Z,3.00
2022-09-23T05:32:08.001Z,2.80
2022-09-23T05:33:09.570Z,3.22
2022-09-23T05:34:12.304Z,2.72
2022-09-23T05:35:14.124Z,2.88
2022-09-23T05:36:17.755Z,2.55
2022-09-23T05:37:19.262Z,2.70
2022-09-23T05:38:21.115Z,2.55
2022-09-23T05:39:22.785Z,2.65
2022-09-23T05:40:24.439Z,2.72
2022-09-23T05:41:26.387Z,2.97
2022-09-23T05:42:28.540Z,2.53
2022-09-23T05:43:31.058Z,3.03
2022-09-23T05:44:32.677Z,2.40
2022-09-23T05:45:34.268Z,2.50
2022-09-23T05:46:36.631Z,2.55
2022-09-23T05:47:38.220Z,3.17
2022-09-23T05:48:41.539Z,2.60
2022-09-23T05:49:59.280Z,3.15
2022-09-23T05:51:01.816Z,2.80
2022-09-23T05:52:03.396Z,2.53
2022-09-23T05:53:05.026Z,2.72
2022-09-23T05:54:06.887Z,3.90
2022-09-23T05:55:08.950Z,2.95
2022-09-23T05:56:11.361Z,2.72
2022-09-23T05:57:12.989Z,3.10
2022-09-23T05:58:14.950Z,2.60
2022-09-23T05:59:16.523Z,2.78
2022-09-23T06:00:18.109Z,2.80
2022-09-23T06:01:25.265Z,3.47
2022-09-23T06:02:26.824Z,2.53
2022-09-23T06:03:28.546Z,2.47
2022-09-23T06:04:31.048Z,2.65
2022-09-23T06:05:35.506Z,2.67
2022-09-23T06:06:39.137Z,2.50
2022-09-23T06:07:40.778Z,2.58
2022-09-23T06:08:43.125Z,2.90
2022-09-23T06:09:45.448Z,2.97
2022-09-23T06:10:54.465Z,2.97
2022-09-23T06:11:58.747Z,2.90
2022-09-23T06:13:00.474Z,3.20
2022-09-23T06:14:02.715Z,2.60
2022-09-23T06:15:05.178Z,2.10
2022-09-23T06:16:14.512Z,3.20
2022-09-23T06:17:16.513Z,2.88
2022-09-23T06:18:18.906Z,3.35
2022-09-23T06:19:20.525Z,2.47
2022-09-23T06:20:22.081Z,2.80
2022-09-23T06:21:23.852Z,2.60
2022-09-23T06:22:25.331Z,2.87
2022-09-23T06:23:26.879Z,2.55
2022-09-23T06:24:31.280Z,2.30
2022-09-23T06:25:34.618Z,2.73
2022-09-23T06:26:37.917Z,2.80
2022-09-23T06:27:39.600Z,2.90
2022-09-23T06:28:43.044Z,2.55
2022-09-23T06:29:44.706Z,2.23
2022-09-23T06:30:46.262Z,2.70
2022-09-23T06:31:49.812Z,2.60
2022-09-23T06:32:53.648Z,3.67
2022-09-23T06:34:06.326Z,2.33
2022-09-23T06:35:23.149Z,2.13
2022-09-23T06:36:40.178Z,2.30
2022-09-23T06:37:45.300Z,2.43
2022-09-23T06:38:49.330Z,2.37
2022-09-23T06:39:51.226Z,2.50
2022-09-23T06:40:55.732Z,2.50
2022-09-23T06:41:57.249Z,2.80
2022-09-23T06:43:02.230Z,1.90
2022-09-23T06:44:03.943Z,3.13
2022-09-23T06:45:05.775Z,2.13
2022-09-23T06:46:08.597Z,2.23
2022-09-23T06:47:10.260Z,2.80
2022-09-23T06:48:12.023Z,2.53
2022-09-23T06:49:13.694Z,2.47
2022-09-23T06:50:15.394Z,2.20
2022-09-23T06:51:20.360Z,2.10
2022-09-23T06:52:21.954Z,2.63
2022-09-23T06:53:23.675Z,2.40
2022-09-23T06:54:28.363Z,2.40
2022-09-23T06:55:30.372Z,2.63
2022-09-23T06:56:36.347Z,2.70
2022-09-23T06:57:41.514Z,2.70
2022-09-23T06:58:43.519Z,4.50
2022-09-23T06:59:45.086Z,2.63
2022-09-23T07:00:46.703Z,2.87
2022-09-23T07:01:48.489Z,2.30
2022-09-23T07:02:50.602Z,2.17
2022-09-23T07:03:52.374Z,2.50
2022-09-23T07:04:56.797Z,3.33
2022-09-23T07:05:59.283Z,3.83
2022-09-23T07:07:00.939Z,2.63
2022-09-23T07:08:04.754Z,2.80
2022-09-23T07:09:07.349Z,4.20
2022-09-23T07:10:09.673Z,9.27
2022-09-23T07:11:13.189Z,7.80
2022-09-23T07:12:15.000Z,4.30
2022-09-23T07:13:16.561Z,3.20
2022-09-23T07:14:18.062Z,2.90
2022-09-23T07:15:19.753Z,3.00
2022-09-23T07:16:21.687Z,3.40
2022-09-23T07:17:24.762Z,2.40
2022-09-23T07:18:27.049Z,2.63
2022-09-23T07:19:28.690Z,2.60
2022-09-23T07:20:30.282Z,2.60
2022-09-23T07:21:32.653Z,1.97
2022-09-23T07:22:34.239Z,2.20
2022-09-23T07:23:37.652Z,2.07
2022-09-23T07:24:39.219Z,2.23
2022-09-23T07:25:42.358Z,2.03
2022-09-23T07:26:45.802Z,2.20
2022-09-23T07:27:48.167Z,2.60
2022-09-23T07:28:55.372Z,3.60
2022-09-23T07:29:57.226Z,3.37
2022-09-23T07:31:03.489Z,2.70
2022-09-23T07:32:13.396Z,3.43
2022-09-23T07:33:30.480Z,2.30
2022-09-23T07:34:33.932Z,2.33
2022-09-23T07:35:40.928Z,2.47
2022-09-23T07:36:42.555Z,2.80
2022-09-23T07:37:45.039Z,2.43
2022-09-23T07:38:47.433Z,2.40
2022-09-23T07:39:49.180Z,3.03
2022-09-23T07:40:52.354Z,3.10
2022-09-23T07:41:54.320Z,2.80
2022-09-23T07:42:59.635Z,2.27
2022-09-23T07:44:01.393Z,2.37
2022-09-23T07:45:03.256Z,2.17
2022-09-23T07:46:10.252Z,3.10
2022-09-23T07:47:11.857Z,2.27
2022-09-23T07:48:13.882Z,2.73
2022-09-23T07:49:16.010Z,2.63
2022-09-23T07:50:19.111Z,3.00
2022-09-23T07:51:24.173Z,3.57
2022-09-23T07:52:25.711Z,3.30
2022-09-23T07:53:27.517Z,3.27
2022-09-23T07:54:29.985Z,3.73
2022-09-23T07:55:31.725Z,4.00
2022-09-23T07:56:35.130Z,3.20
2022-09-23T07:57:36.886Z,3.40
2022-09-23T07:58:38.561Z,4.07
2022-09-23T07:59:40.661Z,3.30
2022-09-23T08:00:42.302Z,3.20
2022-09-23T08:01:50.554Z,3.33
2022-09-23T08:02:53.209Z,3.10
2022-09-23T08:03:57.399Z,2.90
2022-09-23T08:04:59.231Z,3.03
2022-09-23T08:06:12.022Z,3.23
2022-09-23T08:07:13.791Z,3.87
2022-09-23T08:08:15.437Z,3.30
2022-09-23T08:09:18.916Z,3.60
2022-09-23T08:10:21.099Z,2.87
2022-09-23T08:11:24.006Z,3.40
2022-09-23T08:12:25.644Z,3.37
2022-09-23T08:13:27.387Z,3.40
2022-09-23T08:14:29.221Z,3.40
2022-09-23T08:15:31.207Z,3.37
2022-09-23T08:16:32.996Z,2.97
2022-09-23T08:17:34.760Z,2.93
2022-09-23T08:18:36.901Z,3.80
2022-09-23T08:19:38.823Z,2.80
2022-09-23T08:20:47.830Z,3.43
2022-09-23T08:21:52.320Z,3.40
2022-09-23T08:22:54.625Z,3.13
2022-09-23T08:23:56.190Z,3.10
2022-09-23T08:24:58.454Z,3.13
2022-09-23T08:26:02.568Z,3.13
2022-09-23T08:27:04.159Z,3.10
2022-09-23T08:28:05.821Z,2.70
2022-09-23T08:29:10.136Z,2.70
2022-09-23T08:30:14.665Z,2.70
2022-09-23T08:31:16.602Z,2.33
2022-09-23T08:32:18.162Z,2.87
2022-09-23T08:33:23.374Z,2.43
2022-09-23T08:34:27.912Z,2.40
2022-09-23T08:35:29.543Z,2.17
2022-09-23T08:36:31.809Z,2.20
2022-09-23T08:37:33.592Z,1.97
2022-09-23T08:38:35.245Z,2.33
2022-09-23T08:39:36.806Z,2.20
2022-09-23T08:40:42.215Z,2.27
2022-09-23T08:41:58.807Z,2.03
2022-09-23T08:43:01.055Z,3.00
2022-09-23T08:44:15.083Z,2.23
2022-09-23T08:45:22.515Z,2.10
2022-09-23T08:46:28.738Z,2.03
2022-09-23T08:47:51.690Z,2.83
2022-09-23T08:48:54.716Z,2.53
2022-09-23T08:50:02.338Z,1.93
2022-09-23T08:51:07.333Z,2.10
2022-09-23T08:52:22.908Z,2.07
2022-09-23T08:53:27.565Z,2.07
2022-09-23T08:54:31.303Z,2.33
2022-09-23T08:55:35.812Z,2.23
2022-09-23T08:56:38.707Z,2.27
2022-09-23T08:58:24.503Z,2.03
2022-09-23T08:59:45.140Z,2.10
2022-09-23T09:00:59.810Z,2.53
2022-09-23T09:02:16.650Z,2.43
2022-09-23T09:03:23.933Z,2.33
2022-09-23T09:04:39.058Z,2.13
2022-09-23T09:05:41.214Z,2.43
2022-09-23T09:07:24.582Z,2.40
2022-09-23T09:08:36.525Z,2.37
2022-09-23T09:09:39.189Z,2.20
2022-09-23T09:10:46.932Z,2.30
2022-09-23T09:11:51.484Z,2.20
2022-09-23T09:13:21.910Z,2.60
2022-09-23T09:14:38.006Z,2.40
2022-09-23T09:15:51.398Z,1.90
2022-09-23T09:17:00.906Z,2.63
2022-09-23T09:18:25.509Z,2.33
2022-09-23T09:20:06.350Z,2.23
2022-09-23T09:21:11.847Z,2.00
2022-09-23T09:22:53.874Z,2.00
2022-09-23T09:23:57.775Z,2.37
2022-09-23T09:25:10.077Z,2.20
2022-09-23T09:26:26.893Z,1.97
2022-09-23T09:27:28.769Z,2.23
2022-09-23T09:28:40.010Z,2.93
2022-09-23T09:29:50.077Z,2.23
2022-09-23T09:30:56.586Z,1.90
2022-09-23T09:31:59.709Z,2.47
2022-09-23T09:33:13.279Z,2.50
2022-09-23T09:34:43.078Z,2.20
2022-09-23T09:36:09.112Z,1.80
2022-09-23T09:37:35.857Z,2.07
2022-09-23T09:38:37.838Z,2.30
2022-09-23T09:39:42.487Z,2.23
2022-09-23T09:40:47.768Z,2.70
2022-09-23T09:41:58.551Z,2.20
2022-09-23T09:43:05.895Z,2.90
2022-09-23T09:44:24.259Z,2.20
2022-09-23T09:46:03.456Z,2.23
2022-09-23T09:47:15.155Z,2.07
2022-09-23T09:48:38.705Z,2.50
2022-09-23T09:49:49.236Z,2.40
2022-09-23T09:50:53.453Z,2.00
2022-09-23T09:52:26.838Z,2.60
2022-09-23T09:53:32.047Z,2.27
2022-09-23T09:54:33.651Z,2.23
2022-09-23T09:55:36.060Z,2.70
2022-09-23T09:56:37.824Z,2.37
2022-09-23T09:57:44.185Z,2.20
2022-09-23T09:58:52.136Z,2.30
2022-09-23T09:59:53.884Z,2.50
2022-09-23T10:00:57.052Z,2.57
2022-09-23T10:02:22.841Z,1.97
2022-09-23T10:03:32.336Z,2.33
2022-09-23T10:04:35.659Z,2.60
2022-09-23T10:05:46.317Z,2.03
2022-09-23T10:07:15.568Z,2.10
2022-09-23T10:08:27.996Z,2.50
2022-09-23T10:09:34.791Z,2.60
2022-09-23T10:10:36.367Z,2.77
2022-09-23T10:11:38.947Z,2.10
2022-09-23T10:12:49.553Z,1.70
2022-09-23T10:14:19.179Z,2.10
2022-09-23T10:15:33.073Z,2.00
2022-09-23T10:16:35.098Z,2.37
2022-09-23T10:17:39.006Z,1.93
2022-09-23T10:18:46.648Z,2.60
2022-09-23T10:19:55.319Z,2.47
2022-09-23T10:21:02.665Z,2.40
2022-09-23T10:22:15.617Z,3.30
2022-09-23T10:23:25.112Z,2.80
2022-09-23T10:24:30.522Z,2.60
2022-09-23T10:25:34.971Z,3.00
2022-09-23T10:26:39.440Z,3.17
2022-09-23T10:27:41.118Z,3.30
2022-09-23T10:28:48.815Z,2.03
2022-09-23T10:29:54.270Z,2.90
2022-09-23T10:31:08.832Z,2.60
2022-09-23T10:32:28.831Z,2.40
2022-09-23T10:33:31.716Z,2.27
2022-09-23T10:34:33.840Z,2.37
2022-09-23T10:35:35.829Z,2.80
2022-09-23T10:36:40.134Z,2.73
2022-09-23T10:37:56.543Z,2.73
2022-09-23T10:39:21.029Z,2.40
2022-09-23T10:41:02.292Z,2.03
2022-09-23T10:42:36.516Z,2.20
2022-09-23T10:44:15.204Z,2.47
2022-09-23T10:45:53.854Z,2.80
2022-09-23T10:47:17.083Z,2.20
2022-09-23T10:48:27.941Z,2.23
2022-09-23T10:49:53.745Z,2.40
2022-09-23T10:50:59.458Z,1.97
2022-09-23T10:52:03.953Z,1.90
2022-09-23T10:53:17.682Z,2.33
2022-09-23T10:54:57.072Z,2.43
2022-09-23T10:56:16.528Z,2.00
2022-09-23T10:57:38.095Z,2.83
2022-09-23T10:59:14.288Z,2.90
2022-09-23T11:00:37.912Z,3.07
2022-09-23T11:01:59.092Z,2.40
2022-09-23T11:03:25.610Z,2.03
2022-09-23T11:04:59.433Z,2.47
2022-09-23T11:06:41.277Z,2.07
2022-09-23T11:08:24.540Z,3.00
2022-09-23T11:09:59.400Z,2.63
2022-09-23T11:11:11.522Z,2.57
2022-09-23T11:12:16.409Z,2.00
2022-09-23T11:13:29.501Z,2.90
2022-09-23T11:14:50.590Z,2.47
2022-09-23T11:16:05.559Z,2.23
2022-09-23T11:17:33.410Z,2.60
2022-09-23T11:19:10.767Z,2.30
2022-09-23T11:20:47.432Z,2.10
2022-09-23T11:22:05.438Z,2.20
2022-09-23T11:23:54.392Z,1.50
2022-09-23T11:25:14.611Z,2.23
2022-09-23T11:26:36.632Z,2.20
2022-09-23T11:27:47.504Z,2.20
2022-09-23T11:29:17.025Z,1.97
2022-09-23T11:30:20.332Z,2.17
2022-09-23T11:31:47.924Z,1.77
2022-09-23T11:34:38.706Z,2.30
2022-09-23T11:35:50.894Z,1.80
2022-09-23T11:37:05.866Z,1.77
2022-09-23T11:38:40.173Z,1.70
2022-09-23T11:39:56.300Z,2.28
2022-09-23T11:41:12.254Z,1.90
2022-09-23T11:42:21.638Z,1.90
2022-09-23T11:43:24.631Z,2.00
2022-09-23T11:44:32.496Z,1.97
2022-09-23T11:45:41.181Z,2.00
2022-09-23T11:46:45.135Z,1.77
2022-09-23T11:47:57.819Z,2.03
2022-09-23T11:49:09.383Z,2.20
2022-09-23T11:50:33.207Z,2.40
2022-09-23T11:52:20.591Z,2.07
2022-09-23T11:53:36.329Z,2.00
2022-09-23T11:54:51.504Z,2.63
2022-09-23T11:56:07.113Z,2.27
2022-09-23T11:57:19.260Z,2.27
2022-09-23T11:58:29.341Z,2.20
2022-09-23T11:59:40.935Z,1.90
2022-09-23T12:00:52.867Z,2.30
2022-09-23T12:02:18.068Z,2.20
2022-09-23T12:03:39.750Z,2.20
2022-09-23T12:04:57.534Z,1.90
2022-09-23T12:06:14.357Z,2.43
2022-09-23T12:07:24.501Z,2.13
2022-09-23T12:08:32.460Z,1.93
2022-09-23T12:09:58.166Z,2.40
2022-09-23T12:11:21.489Z,2.13
2022-09-23T12:12:47.925Z,2.20
2022-09-23T12:14:32.474Z,2.33
2022-09-23T12:15:37.318Z,2.90
2022-09-23T12:16:42.473Z,2.73
2022-09-23T12:18:15.932Z,2.47
2022-09-23T12:19:37.890Z,2.30
2022-09-23T12:20:42.320Z,2.47
2022-09-23T12:22:09.853Z,2.47
2022-09-23T12:23:32.887Z,2.50
2022-09-23T12:24:52.264Z,2.60
2022-09-23T12:25:57.786Z,3.20
2022-09-23T12:27:06.071Z,2.47
2022-09-23T12:28:15.586Z,2.40
2022-09-23T12:29:17.430Z,2.43
2022-09-23T12:30:22.209Z,2.37
2022-09-23T12:31:30.624Z,2.20
2022-09-23T12:32:33.910Z,3.07
2022-09-23T12:33:36.509Z,2.80
2022-09-23T12:34:48.751Z,2.73
2022-09-23T12:35:56.015Z,2.50
2022-09-23T12:37:04.105Z,2.30
2022-09-23T12:38:14.924Z,2.57
2022-09-23T12:39:38.612Z,2.37
2022-09-23T12:40:44.654Z,2.43
2022-09-23T12:41:51.794Z,2.60
2022-09-23T12:42:53.761Z,2.60
2022-09-23T12:44:13.908Z,2.80
2022-09-23T12:45:34.713Z,2.47
2022-09-23T12:46:36.638Z,2.93
2022-09-23T12:47:39.875Z,2.77
2022-09-23T12:48:46.918Z,2.27
2022-09-23T12:49:49.549Z,2.10
2022-09-23T12:51:03.163Z,2.33
2022-09-23T12:52:16.408Z,2.73
2022-09-23T12:53:33.205Z,2.50
2022-09-23T12:54:34.963Z,2.10
2022-09-23T12:55:36.568Z,2.50
2022-09-23T12:56:38.584Z,2.30
2022-09-23T12:57:41.876Z,2.10
2022-09-23T12:58:43.373Z,2.20
2022-09-23T13:00:22.549Z,2.60
2022-09-23T13:01:26.836Z,2.73
2022-09-23T13:02:34.142Z,2.47
2022-09-23T13:03:54.156Z,2.30
2022-09-23T13:05:40.619Z,2.50
2022-09-23T13:07:08.765Z,2.70
2022-09-23T13:08:19.916Z,2.50
2022-09-23T13:09:30.168Z,2.57
2022-09-23T13:10:44.096Z,2.37
2022-09-23T13:11:52.032Z,2.47
2022-09-23T13:12:55.815Z,2.60
2022-09-23T13:14:02.612Z,2.50
2022-09-23T13:15:13.634Z,2.20
2022-09-23T13:16:35.401Z,2.93
2022-09-23T13:17:43.715Z,2.43
2022-09-23T13:18:54.205Z,2.70
2022-09-23T13:20:11.705Z,3.30
2022-09-23T13:21:37.560Z,2.63
2022-09-23T13:22:54.053Z,2.30
2022-09-23T13:24:15.979Z,2.77
2022-09-23T13:25:32.647Z,2.50
2022-09-23T13:26:36.508Z,2.87
2022-09-23T13:27:38.613Z,2.80
2022-09-23T13:28:58.649Z,2.63
2022-09-23T13:30:06.147Z,3.13
2022-09-23T13:31:15.947Z,2.87
2022-09-23T13:32:22.732Z,2.77
2022-09-23T13:33:32.799Z,2.87
2022-09-23T13:34:38.602Z,2.90
2022-09-23T13:35:52.155Z,2.80
2022-09-23T13:36:53.781Z,3.30
2022-09-23T13:37:56.259Z,3.00
2022-09-23T13:39:27.672Z,3.83
2022-09-23T13:40:33.994Z,3.10
2022-09-23T13:41:38.072Z,3.43
2022-09-23T13:42:41.880Z,3.00
2022-09-23T13:43:54.251Z,3.03
2022-09-23T13:44:59.038Z,4.37
2022-09-23T13:46:01.763Z,4.47
2022-09-23T13:47:08.064Z,3.60
2022-09-23T13:48:15.392Z,3.67
2022-09-23T13:49:24.683Z,2.70
2022-09-23T13:50:28.719Z,2.80
2022-09-23T13:51:35.172Z,3.20
2022-09-23T13:52:39.339Z,2.40
2022-09-23T13:53:41.096Z,2.80
2022-09-23T13:54:49.430Z,2.13
2022-09-23T13:56:05.509Z,2.77
2022-09-23T13:57:29.493Z,2.70
2022-09-23T13:58:33.580Z,2.63
2022-09-23T13:59:42.601Z,2.43
2022-09-23T14:00:47.618Z,2.30
2022-09-23T14:01:49.290Z,2.77
2022-09-23T14:02:51.076Z,2.53
2022-09-23T14:03:55.121Z,2.60
2022-09-23T14:05:10.803Z,3.03
2022-09-23T14:06:15.463Z,2.20
2022-09-23T14:07:21.698Z,2.57
2022-09-23T14:08:25.906Z,2.57
2022-09-23T14:09:29.119Z,3.40
2022-09-23T14:10:31.167Z,3.00
2022-09-23T14:11:43.907Z,2.60
2022-09-23T14:12:47.509Z,3.50
2022-09-23T14:13:54.283Z,2.83
2022-09-23T14:14:59.951Z,3.37
2022-09-23T14:16:09.244Z,3.17
2022-09-23T14:17:18.914Z,2.87
2022-09-23T14:18:41.034Z,2.80
2022-09-23T14:19:43.305Z,2.93
2022-09-23T14:20:47.286Z,2.87
2022-09-23T14:22:00.224Z,3.60
2022-09-23T14:23:12.765Z,3.60
2022-09-23T14:24:20.919Z,2.97
2022-09-23T14:25:26.327Z,2.50
2022-09-23T14:26:28.015Z,3.40
2022-09-23T14:27:36.976Z,3.37
2022-09-23T14:28:38.990Z,2.70
2022-09-23T14:29:47.603Z,2.80
2022-09-23T14:30:52.059Z,3.87
2022-09-23T14:32:01.800Z,4.03
2022-09-23T14:33:09.414Z,3.17
2022-09-23T14:34:43.007Z,3.20
2022-09-23T14:35:54.173Z,3.30
2022-09-23T14:37:17.729Z,4.90
2022-09-23T14:38:44.968Z,3.83
2022-09-23T14:39:53.497Z,3.60
2022-09-23T14:41:18.211Z,3.80
2022-09-23T14:42:20.624Z,2.43
2022-09-23T14:43:25.651Z,3.20
2022-09-23T14:44:28.085Z,3.60
2022-09-23T14:45:39.168Z,3.00
2022-09-23T14:46:50.872Z,3.43
2022-09-23T14:48:10.691Z,3.83
2022-09-23T14:49:12.288Z,3.27
2022-09-23T14:50:55.958Z,2.70
2022-09-23T14:52:03.546Z,2.90
2022-09-23T14:53:20.670Z,2.80
2022-09-23T14:54:35.172Z,2.70
2022-09-23T14:55:37.528Z,3.07
2022-09-23T14:56:46.918Z,2.80
2022-09-23T14:57:51.710Z,2.77
2022-09-23T14:59:02.364Z,2.83
2022-09-23T15:00:21.170Z,2.63
2022-09-23T15:01:33.071Z,3.27
2022-09-23T15:03:04.787Z,2.83
2022-09-23T15:04:26.394Z,2.50
2022-09-23T15:05:47.422Z,3.10
2022-09-23T15:06:58.549Z,3.03
2022-09-23T15:08:10.316Z,2.93
2022-09-23T15:09:20.507Z,3.10
2022-09-23T15:10:46.285Z,3.00
2022-09-23T15:11:53.038Z,3.03
2022-09-23T15:13:05.716Z,3.03
2022-09-23T15:14:36.522Z,3.13
2022-09-23T15:15:36.483Z,3.10
2022-09-23T15:16:42.737Z,2.87
2022-09-23T15:17:53.697Z,2.57
2022-09-23T15:19:02.959Z,2.63
2022-09-23T15:20:28.625Z,2.60
2022-09-23T15:21:55.458Z,2.27
2022-09-23T15:23:01.400Z,2.70
2022-09-23T15:24:06.273Z,2.67
2022-09-23T15:25:23.152Z,2.90
2022-09-23T15:26:49.313Z,2.77
2022-09-23T15:28:21.340Z,2.87